Time;durP1;ratioP1;P1;durP2;ratioP2;P2;SDS_P1;SDS_P2;PMS_P1;PMS_P2;Temp;Humidity;BMP_temperature;BMP_pressure;BME280_temperature;BME280_humidity;BME280_pressure;Samples;Min_cycle;Max_cycle;Signal;HPM_P1;HPM_P2
2023/01/02 00:00:56;;;;;;;0.00;0.00;;;9.80;99.90;;;;;;5029845;28;20570;-70
2023/01/02 00:03:21;;;;;;;0.00;0.00;;;9.80;99.90;;;;;;5029360;28;20396;-70
2023/01/02 00:05:47;;;;;;;0.00;0.00;;;9.80;99.90;;;;;;5028988;28;20038;-70
2023/01/02 00:08:12;;;;;;;8.07;2.30;;;9.80;99.90;;;;;;5027268;28;20128;-70
2023/01/02 00:10:38;;;;;;;0.10;0.10;;;9.80;99.90;;;;;;5029698;28;20045;-70
2023/01/02 00:13:04;;;;;;;0.03;0.03;;;9.80;99.90;;;;;;5026434;28;20037;-70
2023/01/02 00:15:29;;;;;;;0.10;0.10;;;9.80;99.90;;;;;;5022946;28;20080;-70
2023/01/02 00:17:55;;;;;;;0.30;0.30;;;9.70;99.90;;;;;;5029818;28;20049;-70
2023/01/02 00:20:20;;;;;;;0.00;0.00;;;9.70;99.90;;;;;;5031051;28;20096;-70
2023/01/02 00:22:46;;;;;;;0.10;0.10;;;9.70;99.90;;;;;;5027543;28;20129;-70
2023/01/02 00:25:12;;;;;;;0.08;0.08;;;9.70;99.90;;;;;;5030925;28;20091;-70
2023/01/02 00:27:38;;;;;;;0.10;0.10;;;9.70;99.90;;;;;;5027453;28;20057;-70
2023/01/02 00:30:03;;;;;;;0.10;0.10;;;9.70;99.90;;;;;;5029491;28;20049;-70
2023/01/02 00:32:29;;;;;;;0.03;0.03;;;9.70;99.90;;;;;;5029571;28;20519;-70
2023/01/02 00:34:55;;;;;;;0.00;0.00;;;9.70;99.90;;;;;;5027575;28;20045;-70
2023/01/02 00:37:20;;;;;;;0.10;0.10;;;9.70;99.90;;;;;;5029159;28;20128;-70
2023/01/02 00:39:46;;;;;;;0.10;0.10;;;9.70;99.90;;;;;;5028505;28;20053;-70
2023/01/02 00:42:11;;;;;;;0.10;0.10;;;9.70;99.90;;;;;;5028926;28;20042;-70
2023/01/02 00:44:37;;;;;;;0.00;0.00;;;9.70;99.90;;;;;;5029081;28;20083;-70
2023/01/02 00:47:02;;;;;;;0.13;0.13;;;9.70;99.90;;;;;;5027494;28;20118;-70
2023/01/02 00:49:28;;;;;;;0.17;0.17;;;9.80;99.90;;;;;;5029734;28;20144;-70
2023/01/02 00:51:53;;;;;;;0.10;0.10;;;9.80;99.90;;;;;;5028007;28;20052;-70
2023/01/02 00:54:19;;;;;;;0.10;0.10;;;9.80;99.90;;;;;;5027685;28;20041;-70
2023/01/02 00:56:44;;;;;;;0.45;0.45;;;9.80;99.90;;;;;;5029750;28;20045;-70
2023/01/02 00:59:10;;;;;;;0.38;0.38;;;9.80;99.90;;;;;;5016045;28;20103;-70
2023/01/02 01:01:36;;;;;;;0.15;0.15;;;9.90;99.90;;;;;;5029266;28;20065;-71
2023/01/02 01:04:01;;;;;;;0.10;0.10;;;9.90;99.90;;;;;;5027213;28;20469;-70
2023/01/02 01:06:27;;;;;;;0.10;0.10;;;9.80;99.90;;;;;;5028346;28;20508;-70
2023/01/02 01:08:52;;;;;;;0.10;0.10;;;9.90;99.90;;;;;;5028805;28;20080;-71
2023/01/02 01:11:18;;;;;;;0.08;0.08;;;9.90;99.90;;;;;;5025541;28;20049;-70
2023/01/02 01:13:44;;;;;;;0.10;0.10;;;10.00;99.90;;;;;;5028107;28;20397;-71
2023/01/02 01:16:15;;;;;;;0.15;0.15;;;10.00;99.90;;;;;;5023356;28;20038;-70
2023/01/02 01:18:42;;;;;;;0.57;0.57;;;10.10;99.90;;;;;;5028065;28;20452;-70
2023/01/02 01:21:13;;;;;;;0.20;0.20;;;10.20;99.90;;;;;;5027640;28;20556;-70
2023/01/02 01:23:38;;;;;;;0.10;0.10;;;10.20;99.90;;;;;;5028019;28;20053;-70
2023/01/02 01:26:06;;;;;;;0.05;0.05;;;10.30;99.90;;;;;;5026341;28;20371;-71
2023/01/02 01:28:32;;;;;;;0.00;0.00;;;10.30;99.90;;;;;;5027742;28;20052;-70
2023/01/02 01:31:03;;;;;;;0.25;0.25;;;10.40;99.90;;;;;;5027975;28;20382;-71
2023/01/02 01:33:30;;;;;;;0.10;0.10;;;10.40;99.90;;;;;;5027552;28;20041;-71
2023/01/02 01:36:03;;;;;;;1.48;0.80;;;10.50;99.90;;;;;;5028280;28;20053;-71
2023/01/02 01:38:29;;;;;;;0.10;0.10;;;10.50;99.90;;;;;;5024172;28;20096;-71
2023/01/02 01:40:54;;;;;;;0.20;0.20;;;10.50;99.90;;;;;;5021049;28;20477;-70
2023/01/02 01:43:42;;;;;;;4.78;2.42;;;10.50;99.90;;;;;;5024606;28;20068;-70
2023/01/02 01:46:45;;;;;;;0.43;0.43;;;10.50;99.90;;;;;;5015368;28;20476;-71
2023/01/02 01:49:18;;;;;;;0.00;0.00;;;10.50;99.90;;;;;;5024770;28;20053;-70
2023/01/02 01:51:49;;;;;;;0.10;0.10;;;10.60;99.90;;;;;;5027808;28;20073;-70
2023/01/02 01:54:18;;;;;;;0.10;0.10;;;10.60;99.90;;;;;;5024083;28;20042;-70
2023/01/02 01:56:51;;;;;;;0.10;0.10;;;10.60;99.90;;;;;;5028487;28;20041;-70
2023/01/02 01:59:18;;;;;;;0.10;0.10;;;10.60;99.90;;;;;;5027079;28;20079;-70
2023/01/02 02:01:45;;;;;;;0.20;0.20;;;10.60;99.90;;;;;;5026880;28;20049;-70
2023/01/02 02:04:11;;;;;;;1.98;1.85;;;10.60;99.90;;;;;;5028875;28;20117;-70
2023/01/02 02:06:37;;;;;;;0.10;0.10;;;10.60;99.90;;;;;;5028079;28;20037;-70
2023/01/02 02:09:31;;;;;;;0.10;0.10;;;10.60;99.90;;;;;;5024017;28;20046;-70
2023/01/02 02:11:57;;;;;;;0.10;0.10;;;10.60;99.90;;;;;;5022373;28;20397;-70
2023/01/02 02:14:23;;;;;;;0.30;0.30;;;10.60;99.90;;;;;;5027251;28;20060;-70
2023/01/02 02:17:18;;;;;;;0.20;0.20;;;10.60;99.90;;;;;;5025723;28;20425;-70
2023/01/02 02:19:50;;;;;;;1.55;0.40;;;10.60;99.90;;;;;;5019755;28;20136;-70
2023/01/02 02:22:24;;;;;;;0.00;0.00;;;10.60;99.90;;;;;;5026623;28;20125;-70
2023/01/02 02:25:14;;;;;;;0.95;0.95;;;10.70;99.90;;;;;;5025216;28;20053;-70
2023/01/02 02:28:09;;;;;;;0.88;0.28;;;10.70;99.90;;;;;;5017085;28;20084;-70
2023/01/02 02:30:43;;;;;;;2.00;0.93;;;10.70;99.90;;;;;;5026503;28;20077;-71
2023/01/02 02:33:11;;;;;;;;;;;10.70;99.90;;;;;;5028845;28;20088;-70
2023/01/02 02:36:04;;;;;;;2.03;1.23;;;10.70;99.90;;;;;;5022519;28;20368;-70
2023/01/02 02:38:57;;;;;;;0.30;0.30;;;10.70;99.90;;;;;;5026037;28;20116;-71
2023/01/02 02:41:37;;;;;;;0.25;0.25;;;10.70;99.90;;;;;;5017084;28;20046;-71
2023/01/02 02:44:18;;;;;;;0.40;0.40;;;10.70;99.90;;;;;;5024938;28;20114;-70
2023/01/02 02:47:01;;;;;;;0.60;0.60;;;10.70;99.90;;;;;;5027702;28;20194;-70
2023/01/02 02:49:36;;;;;;;2.47;2.28;;;10.70;99.90;;;;;;5024572;28;20053;-70
2023/01/02 02:52:06;;;;;;;4.35;0.80;;;10.70;99.90;;;;;;5025963;28;20452;-70
2023/01/02 02:55:14;;;;;;;0.30;0.30;;;10.70;99.90;;;;;;5026407;28;20048;-70
2023/01/02 02:57:42;;;;;;;0.82;0.57;;;10.80;99.90;;;;;;5021608;28;20049;-70
2023/01/02 03:00:13;;;;;;;0.10;0.10;;;10.70;99.90;;;;;;5027312;28;20564;-70
2023/01/02 03:02:38;;;;;;;2.10;1.88;;;10.80;99.90;;;;;;5026874;28;20053;-70
2023/01/02 03:05:08;;;;;;;0.43;0.43;;;10.80;99.90;;;;;;5022651;28;20052;-70
2023/01/02 03:07:57;;;;;;;0.20;0.20;;;10.80;99.90;;;;;;5019444;28;20052;-70
2023/01/02 03:10:50;;;;;;;0.55;0.55;;;10.80;99.90;;;;;;5025425;28;20100;-70
2023/01/02 03:13:25;;;;;;;10.60;2.53;;;10.90;99.90;;;;;;5027056;28;20045;-70
2023/01/02 03:15:58;;;;;;;6.82;2.60;;;10.80;99.90;;;;;;5024972;28;20122;-71
2023/01/02 03:18:29;;;;;;;1.20;1.15;;;10.90;99.90;;;;;;5019361;28;20498;-70
2023/01/02 03:21:06;;;;;;;1.48;1.33;;;10.80;99.90;;;;;;5026425;28;20060;-70
2023/01/02 03:23:39;;;;;;;0.10;0.10;;;10.80;99.90;;;;;;5016230;28;20076;-70
2023/01/02 03:26:06;;;;;;;0.40;0.40;;;10.90;99.90;;;;;;5024310;28;20085;-70
2023/01/02 03:28:33;;;;;;;0.30;0.30;;;10.90;99.90;;;;;;5027756;28;20061;-70
2023/01/02 03:31:01;;;;;;;0.75;0.75;;;10.90;99.90;;;;;;5023104;28;20184;-70
2023/01/02 03:33:31;;;;;;;0.95;0.82;;;10.90;99.90;;;;;;5022620;28;20049;-70
2023/01/02 03:36:02;;;;;;;0.20;0.20;;;10.90;99.90;;;;;;5022546;28;20076;-70
2023/01/02 03:38:34;;;;;;;0.50;0.50;;;10.90;99.90;;;;;;5027623;28;20053;-70
2023/01/02 03:41:29;;;;;;;0.43;0.43;;;10.90;99.90;;;;;;5024734;28;20033;-70
2023/01/02 03:43:56;;;;;;;0.30;0.30;;;10.90;99.90;;;;;;5017185;28;20059;-70
2023/01/02 03:46:47;;;;;;;2.28;1.05;;;10.90;99.90;;;;;;5027899;28;20049;-70
2023/01/02 03:49:30;;;;;;;0.38;0.38;;;10.90;99.90;;;;;;5023583;28;20401;-70
2023/01/02 03:51:56;;;;;;;0.13;0.13;;;11.00;99.90;;;;;;5028906;28;20140;-70
2023/01/02 03:54:22;;;;;;;0.38;0.38;;;11.00;99.90;;;;;;5024103;28;20124;-70
2023/01/02 03:57:02;;;;;;;0.65;0.65;;;11.00;99.90;;;;;;5031105;28;20539;-70
2023/01/02 03:59:47;;;;;;;1.05;0.95;;;10.90;99.90;;;;;;5025849;28;20077;-71
2023/01/02 04:02:43;;;;;;;0.10;0.10;;;11.00;99.90;;;;;;5030332;28;20513;-70
2023/01/02 04:05:33;;;;;;;4.95;1.33;;;10.90;99.90;;;;;;5029690;28;20054;-70
2023/01/02 04:08:09;;;;;;;0.68;0.68;;;11.00;99.90;;;;;;5022420;28;20053;-70
2023/01/02 04:10:36;;;;;;;0.32;0.32;;;11.00;99.90;;;;;;5026613;28;20049;-70
2023/01/02 04:13:10;;;;;;;0.20;0.20;;;10.90;99.90;;;;;;5030667;28;20410;-70
2023/01/02 04:15:38;;;;;;;2.10;0.75;;;11.00;99.90;;;;;;5027760;28;20049;-70
2023/01/02 04:18:14;;;;;;;0.10;0.10;;;11.00;99.90;;;;;;5028272;28;20060;-70
2023/01/02 04:20:44;;;;;;;0.50;0.50;;;11.00;99.90;;;;;;5030810;28;20060;-71
2023/01/02 04:23:15;;;;;;;1.15;1.08;;;11.00;99.90;;;;;;5027836;28;20489;-70
2023/01/02 04:26:09;;;;;;;4.40;0.98;;;10.90;99.90;;;;;;5029926;28;20045;-71
2023/01/02 04:28:35;;;;;;;0.10;0.10;;;10.90;99.90;;;;;;5023935;28;20045;-70
2023/01/02 04:31:17;;;;;;;0.85;0.85;;;10.90;99.90;;;;;;5026813;28;20038;-70
2023/01/02 04:33:54;;;;;;;0.10;0.10;;;10.90;99.90;;;;;;5026988;28;20049;-70
2023/01/02 04:36:19;;;;;;;2.83;1.30;;;11.00;99.90;;;;;;5029799;28;20053;-71
2023/01/02 04:38:45;;;;;;;5.18;2.58;;;10.90;99.90;;;;;;5028791;28;20052;-71
2023/01/02 04:41:16;;;;;;;0.93;0.63;;;10.90;99.90;;;;;;5028448;28;20460;-71
2023/01/02 04:43:41;;;;;;;0.32;0.32;;;10.90;99.90;;;;;;5029234;28;20057;-71
2023/01/02 04:46:07;;;;;;;0.13;0.13;;;10.90;99.90;;;;;;5029640;28;20054;-71
2023/01/02 04:48:33;;;;;;;0.10;0.10;;;10.80;99.90;;;;;;5013001;28;20054;-71
2023/01/02 04:50:58;;;;;;;2.83;1.10;;;10.80;99.90;;;;;;5008293;28;20064;-70
2023/01/02 04:53:24;;;;;;;0.40;0.40;;;10.90;99.90;;;;;;5010040;28;20140;-70
2023/01/02 04:55:57;;;;;;;0.20;0.20;;;10.90;99.90;;;;;;4991515;28;20045;-70
2023/01/02 04:58:22;;;;;;;0.40;0.32;;;10.80;99.90;;;;;;5009543;28;20133;-70
2023/01/02 05:00:48;;;;;;;5.15;1.33;;;10.80;99.90;;;;;;5009971;28;20129;-70
2023/01/02 05:03:14;;;;;;;0.00;0.00;;;10.80;99.90;;;;;;5008303;28;20058;-70
2023/01/02 05:05:39;;;;;;;0.38;0.38;;;10.80;99.90;;;;;;5008825;28;20108;-70
2023/01/02 05:08:05;;;;;;;0.10;0.10;;;10.80;99.90;;;;;;5008765;28;20425;-70
2023/01/02 05:10:30;;;;;;;0.10;0.10;;;10.80;99.90;;;;;;5009245;28;20052;-70
2023/01/02 05:12:59;;;;;;;0.65;0.65;;;10.80;99.90;;;;;;4989700;28;20399;-70
2023/01/02 05:15:25;;;;;;;0.52;0.32;;;10.70;99.90;;;;;;5008142;28;20058;-71
2023/01/02 05:17:50;;;;;;;0.73;0.73;;;10.70;99.90;;;;;;5009827;28;20046;-70
2023/01/02 05:20:16;;;;;;;0.10;0.10;;;10.70;99.90;;;;;;5009153;28;20391;-71
2023/01/02 05:25:31;;;;;;;0.30;0.30;;;10.70;99.90;;;;;;5008889;28;20155;-71
2023/01/02 05:27:57;;;;;;;0.15;0.15;;;10.70;99.90;;;;;;5007426;28;20085;-70
2023/01/02 05:30:22;;;;;;;0.10;0.10;;;10.70;99.90;;;;;;5009660;28;20092;-71
2023/01/02 05:32:48;;;;;;;0.25;0.25;;;10.70;99.90;;;;;;4989202;28;20124;-71
2023/01/02 05:35:14;;;;;;;0.10;0.10;;;10.70;99.90;;;;;;5009789;28;20048;-71
2023/01/02 05:37:39;;;;;;;0.00;0.00;;;10.60;99.90;;;;;;4987680;28;20100;-71
2023/01/02 05:40:05;;;;;;;0.00;0.00;;;10.60;99.90;;;;;;5002939;28;20038;-71
2023/01/02 05:42:31;;;;;;;0.20;0.20;;;10.60;99.90;;;;;;5008131;28;20133;-71
2023/01/02 05:44:56;;;;;;;0.10;0.10;;;10.50;99.90;;;;;;5008475;28;20118;-71
2023/01/02 05:47:22;;;;;;;0.52;0.52;;;10.50;99.90;;;;;;5012615;28;20053;-70
2023/01/02 05:49:48;;;;;;;1.85;0.70;;;10.50;99.90;;;;;;5028862;28;20580;-70
2023/01/02 05:52:13;;;;;;;1.67;1.58;;;10.30;99.90;;;;;;5027107;28;20045;-70
2023/01/02 05:54:39;;;;;;;0.55;0.55;;;10.20;99.90;;;;;;5025131;28;20455;-70
2023/01/02 05:57:04;;;;;;;0.10;0.10;;;10.10;99.90;;;;;;5027018;28;20049;-70
2023/01/02 05:59:30;;;;;;;0.35;0.35;;;10.00;99.90;;;;;;5028263;28;20084;-70
2023/01/02 06:01:56;;;;;;;0.10;0.10;;;9.90;99.90;;;;;;5028097;28;20152;-70
2023/01/02 06:04:21;;;;;;;0.00;0.00;;;9.80;99.90;;;;;;5027499;28;20037;-70
2023/01/02 06:06:48;;;;;;;0.17;0.17;;;9.80;99.90;;;;;;5028242;28;20033;-71
2023/01/02 06:09:15;;;;;;;0.00;0.00;;;9.70;99.90;;;;;;5027286;28;20102;-71
2023/01/02 06:11:41;;;;;;;0.10;0.10;;;9.60;99.90;;;;;;5021182;28;20042;-71
2023/01/02 06:14:07;;;;;;;0.10;0.10;;;9.50;99.90;;;;;;5041198;28;20627;-71
2023/01/02 06:16:33;;;;;;;0.10;0.10;;;9.50;99.90;;;;;;5027751;28;20516;-71
2023/01/02 06:18:59;;;;;;;0.10;0.10;;;9.40;99.90;;;;;;5027418;28;20046;-70
2023/01/02 06:21:24;;;;;;;0.20;0.20;;;9.50;99.90;;;;;;5024737;28;20418;-70
2023/01/02 06:23:55;;;;;;;0.10;0.10;;;9.40;99.90;;;;;;5023139;28;20505;-70
2023/01/02 06:26:23;;;;;;;0.10;0.10;;;9.30;99.90;;;;;;5019693;28;20046;-70
2023/01/02 06:28:51;;;;;;;4.20;1.85;;;9.20;99.90;;;;;;5026848;28;20136;-70
2023/01/02 06:31:18;;;;;;;0.10;0.10;;;9.20;99.90;;;;;;5023931;28;20084;-70
2023/01/02 06:33:44;;;;;;;0.10;0.10;;;9.10;99.90;;;;;;5025920;28;20033;-70
2023/01/02 06:36:15;;;;;;;0.10;0.10;;;9.10;99.90;;;;;;5023671;28;20079;-71
2023/01/02 06:38:41;;;;;;;0.10;0.10;;;9.10;99.90;;;;;;5028387;28;20045;-70
2023/01/02 06:41:08;;;;;;;0.10;0.10;;;9.00;99.90;;;;;;5026705;28;20283;-71
2023/01/02 06:43:35;;;;;;;0.08;0.08;;;9.10;99.90;;;;;;5026580;28;20037;-71
2023/01/02 06:46:03;;;;;;;0.10;0.10;;;9.10;99.90;;;;;;5028103;28;20045;-70
2023/01/02 06:48:31;;;;;;;0.10;0.10;;;9.10;99.90;;;;;;5026367;28;20068;-70
2023/01/02 06:50:58;;;;;;;0.10;0.10;;;9.10;99.90;;;;;;5025284;28;20068;-71
2023/01/02 06:53:27;;;;;;;0.00;0.00;;;9.10;99.90;;;;;;5027620;28;20068;-70
2023/01/02 06:55:55;;;;;;;0.10;0.10;;;9.10;99.90;;;;;;5026622;28;20056;-70
2023/01/02 06:58:21;;;;;;;0.15;0.15;;;9.00;99.90;;;;;;5026381;28;20493;-70
2023/01/02 07:00:48;;;;;;;0.00;0.00;;;9.00;99.90;;;;;;5024469;28;20045;-70
2023/01/02 07:03:14;;;;;;;0.10;0.10;;;9.00;99.90;;;;;;5025509;28;20088;-70
2023/01/02 07:05:40;;;;;;;0.10;0.10;;;9.00;99.90;;;;;;5025533;28;20386;-70
2023/01/02 07:08:06;;;;;;;1.65;0.80;;;9.00;99.90;;;;;;5026363;28;20049;-70
2023/01/02 07:10:31;;;;;;;0.00;0.00;;;9.00;99.90;;;;;;5026544;28;20555;-71
2023/01/02 07:12:57;;;;;;;0.10;0.10;;;9.00;99.90;;;;;;5023799;28;20076;-71
2023/01/02 07:15:23;;;;;;;0.00;0.00;;;9.00;99.90;;;;;;5026830;28;20139;-71
2023/01/02 07:17:48;;;;;;;0.10;0.10;;;9.00;99.90;;;;;;5023694;28;20061;-71
2023/01/02 07:20:14;;;;;;;0.10;0.10;;;9.00;99.90;;;;;;5026782;28;20068;-71
2023/01/02 07:22:40;;;;;;;0.00;0.00;;;9.00;99.90;;;;;;5026053;28;20544;-71
2023/01/02 07:25:06;;;;;;;0.10;0.10;;;9.00;99.90;;;;;;5027498;28;20050;-71
2023/01/02 07:27:32;;;;;;;0.10;0.10;;;9.00;99.90;;;;;;5028808;28;22612;-71
2023/01/02 07:29:58;;;;;;;0.10;0.10;;;9.00;99.90;;;;;;5028639;28;20132;-71
2023/01/02 07:32:24;;;;;;;0.10;0.10;;;8.90;99.90;;;;;;5025022;28;20503;-71
2023/01/02 07:34:50;;;;;;;0.08;0.08;;;8.90;99.90;;;;;;5040182;28;20041;-71
2023/01/02 07:37:16;;;;;;;0.10;0.10;;;8.90;99.90;;;;;;5031421;28;20095;-72
2023/01/02 07:39:41;;;;;;;0.10;0.10;;;8.90;99.90;;;;;;5029721;28;20041;-71
2023/01/02 07:42:07;;;;;;;0.00;0.00;;;8.90;99.90;;;;;;5030116;28;20045;-72
2023/01/02 07:44:33;;;;;;;0.10;0.10;;;8.90;99.90;;;;;;5028259;28;20052;-71
2023/01/02 07:46:58;;;;;;;0.10;0.10;;;8.90;99.90;;;;;;5029073;28;20069;-71
2023/01/02 07:49:24;;;;;;;0.10;0.10;;;8.90;99.90;;;;;;5027433;28;20041;-72
2023/01/02 07:51:49;;;;;;;0.00;0.00;;;8.90;99.90;;;;;;5030826;28;20073;-71
2023/01/02 07:54:15;;;;;;;0.10;0.10;;;9.00;99.90;;;;;;5027081;28;20049;-71
2023/01/02 07:56:40;;;;;;;0.30;0.30;;;8.90;99.90;;;;;;5029880;28;20370;-71
2023/01/02 07:59:06;;;;;;;0.10;0.10;;;8.90;99.90;;;;;;5022931;28;20049;-71
2023/01/02 08:01:32;;;;;;;0.03;0.03;;;8.90;99.90;;;;;;5028602;28;20087;-71
2023/01/02 08:03:58;;;;;;;0.25;0.25;;;8.90;99.90;;;;;;5027468;28;20473;-71
2023/01/02 08:06:24;;;;;;;0.10;0.10;;;8.90;99.90;;;;;;5029019;28;20065;-71
2023/01/02 08:08:49;;;;;;;0.10;0.10;;;8.90;99.90;;;;;;5028718;28;20080;-71
2023/01/02 08:11:18;;;;;;;0.00;0.00;;;8.90;99.90;;;;;;5029174;28;20084;-71
2023/01/02 08:13:43;;;;;;;0.10;0.10;;;8.90;99.90;;;;;;5030032;28;20054;-71
2023/01/02 08:16:12;;;;;;;0.20;0.20;;;8.90;99.90;;;;;;5030390;28;20076;-72
2023/01/02 08:18:38;;;;;;;0.00;0.00;;;8.90;99.90;;;;;;5026899;28;20041;-71
2023/01/02 08:21:04;;;;;;;0.13;0.13;;;9.00;99.90;;;;;;5028613;28;20096;-71
2023/01/02 08:23:31;;;;;;;0.00;0.00;;;8.90;99.90;;;;;;5021902;28;20041;-71
2023/01/02 08:26:01;;;;;;;0.00;0.00;;;8.90;99.90;;;;;;5030712;28;20386;-71
2023/01/02 08:28:28;;;;;;;0.20;0.20;;;8.90;99.90;;;;;;5026554;28;20049;-71
2023/01/02 08:30:53;;;;;;;0.00;0.00;;;8.90;99.90;;;;;;5030337;28;20045;-71
2023/01/02 08:33:19;;;;;;;0.17;0.17;;;8.90;99.90;;;;;;5028282;28;20060;-71
2023/01/02 08:35:45;;;;;;;0.13;0.13;;;8.90;99.90;;;;;;5028780;28;20037;-72
2023/01/02 08:38:10;;;;;;;0.93;0.88;;;9.00;99.90;;;;;;5027089;28;20382;-71
2023/01/02 08:40:36;;;;;;;0.10;0.10;;;9.00;99.90;;;;;;5025083;28;20076;-71
2023/01/02 08:43:02;;;;;;;1.00;1.00;;;8.90;99.90;;;;;;5026305;28;20037;-71
2023/01/02 08:45:27;;;;;;;0.10;0.10;;;8.90;99.90;;;;;;5028784;28;20084;-72
2023/01/02 08:47:53;;;;;;;0.10;0.10;;;9.00;99.90;;;;;;5027850;28;20136;-72
2023/01/02 08:50:19;;;;;;;0.10;0.10;;;9.00;99.90;;;;;;5029101;28;20132;-71
2023/01/02 08:52:44;;;;;;;0.10;0.10;;;9.00;99.90;;;;;;5027750;28;20037;-72
2023/01/02 08:55:10;;;;;;;0.00;0.00;;;9.00;99.90;;;;;;5029852;28;20091;-71
2023/01/02 08:57:36;;;;;;;0.10;0.10;;;9.00;99.90;;;;;;5023375;28;20192;-71
2023/01/02 09:00:03;;;;;;;0.10;0.10;;;9.00;99.90;;;;;;5026326;28;20569;-71
2023/01/02 09:02:29;;;;;;;0.10;0.10;;;9.00;99.90;;;;;;5030181;28;20045;-71
2023/01/02 09:04:54;;;;;;;0.10;0.10;;;9.00;99.90;;;;;;5027782;28;20435;-71
2023/01/02 09:07:20;;;;;;;0.10;0.10;;;9.10;99.90;;;;;;5027650;28;20045;-71
2023/01/02 09:09:45;;;;;;;0.10;0.10;;;9.00;99.90;;;;;;5021811;28;20537;-71
2023/01/02 09:12:11;;;;;;;0.10;0.10;;;9.00;99.90;;;;;;5026323;28;20048;-71
2023/01/02 09:14:36;;;;;;;0.10;0.10;;;9.00;99.90;;;;;;5026820;28;20034;-71
2023/01/02 09:17:02;;;;;;;0.10;0.10;;;9.00;99.90;;;;;;5027576;28;20406;-72
2023/01/02 09:19:28;;;;;;;0.05;0.05;;;9.00;99.90;;;;;;5028828;28;20037;-71
2023/01/02 09:21:54;;;;;;;0.20;0.20;;;9.00;99.90;;;;;;5028727;28;20053;-71
2023/01/02 09:24:20;;;;;;;0.10;0.10;;;9.00;99.90;;;;;;5028037;28;20543;-71
2023/01/02 09:26:45;;;;;;;0.10;0.10;;;9.00;99.90;;;;;;5028858;28;20515;-71
2023/01/02 09:29:12;;;;;;;0.65;0.65;;;9.00;99.90;;;;;;5022782;28;20138;-71
2023/01/02 09:31:39;;;;;;;0.10;0.10;;;9.00;99.90;;;;;;5025341;28;20140;-71
2023/01/02 09:34:05;;;;;;;0.00;0.00;;;9.00;99.90;;;;;;5021889;28;20091;-71
2023/01/02 09:36:31;;;;;;;0.10;0.10;;;9.10;99.90;;;;;;5022659;28;20737;-71
2023/01/02 09:38:59;;;;;;;0.10;0.10;;;9.10;99.90;;;;;;5027460;28;20106;-71
2023/01/02 09:41:33;;;;;;;0.10;0.10;;;9.10;99.90;;;;;;5023414;28;20133;-71
2023/01/02 09:44:00;;;;;;;0.00;0.00;;;9.10;99.90;;;;;;5016912;28;20542;-71
2023/01/02 09:46:35;;;;;;;0.10;0.10;;;9.10;99.90;;;;;;5028473;28;20041;-71
2023/01/02 09:49:02;;;;;;;0.32;0.32;;;9.10;99.90;;;;;;5007716;28;20141;-71
2023/01/02 09:51:28;;;;;;;0.13;0.13;;;9.10;99.90;;;;;;4989497;28;20069;-70
2023/01/02 09:53:54;;;;;;;0.10;0.10;;;9.20;99.90;;;;;;5003749;28;20048;-70
2023/01/02 09:56:24;;;;;;;0.10;0.10;;;9.20;99.90;;;;;;4987948;28;20049;-69
2023/01/02 09:59:06;;;;;;;0.10;0.10;;;9.20;99.90;;;;;;5003276;28;20088;-71
2023/01/02 10:01:44;;;;;;;0.90;0.80;;;9.10;99.90;;;;;;5007926;28;20092;-71
2023/01/02 10:04:40;;;;;;;0.10;0.10;;;9.10;99.90;;;;;;5009256;28;20547;-71
2023/01/02 10:07:11;;;;;;;0.05;0.05;;;9.20;99.90;;;;;;5000857;28;20080;-71
2023/01/02 10:09:53;;;;;;;0.13;0.13;;;9.10;99.90;;;;;;4990253;28;20050;-71
2023/01/02 10:12:31;;;;;;;0.10;0.10;;;9.20;99.90;;;;;;5004469;28;20046;-71
2023/01/02 10:15:05;;;;;;;0.10;0.10;;;9.20;99.90;;;;;;4990030;28;20498;-71
2023/01/02 10:17:36;;;;;;;0.03;0.03;;;9.20;99.90;;;;;;4987711;28;20051;-71
2023/01/02 10:20:18;;;;;;;0.00;0.00;;;9.20;99.90;;;;;;5003038;28;20046;-71
2023/01/02 10:22:50;;;;;;;0.10;0.10;;;9.20;99.90;;;;;;5004409;28;20064;-71
2023/01/02 10:26:02;;;;;;;0.20;0.20;;;9.20;99.90;;;;;;4982985;28;20121;-71
2023/01/02 10:29:05;;;;;;;0.10;0.10;;;9.20;99.90;;;;;;4999178;28;20053;-71
2023/01/02 10:31:39;;;;;;;0.10;0.10;;;9.20;99.90;;;;;;5001514;28;20120;-71
2023/01/02 10:34:10;;;;;;;0.05;0.05;;;9.20;99.90;;;;;;4990812;28;20030;-71
2023/01/02 10:36:40;;;;;;;0.10;0.10;;;9.20;99.90;;;;;;4989545;28;20053;-71
2023/01/02 10:39:11;;;;;;;0.00;0.00;;;9.20;99.90;;;;;;5007989;28;20052;-71
2023/01/02 10:41:38;;;;;;;0.15;0.15;;;9.20;99.90;;;;;;5005618;28;20133;-71
2023/01/02 10:44:33;;;;;;;0.88;0.82;;;9.20;99.90;;;;;;5004449;28;20069;-71
2023/01/02 10:47:27;;;;;;;0.10;0.10;;;9.20;99.90;;;;;;5002589;28;20042;-70
2023/01/02 10:49:53;;;;;;;0.13;0.13;;;9.10;99.90;;;;;;5020996;28;20519;-71
2023/01/02 10:52:39;;;;;;;0.20;0.20;;;9.20;99.90;;;;;;5034791;28;20041;-70
2023/01/02 10:55:06;;;;;;;0.10;0.10;;;9.20;99.90;;;;;;5025732;28;20144;-71
2023/01/02 10:57:49;;;;;;;0.10;0.10;;;9.20;99.90;;;;;;5026765;28;20382;-71
2023/01/02 11:00:18;;;;;;;;;;;9.20;99.90;;;;;;5035574;28;20049;-71
2023/01/02 11:02:50;;;;;;;0.10;0.10;;;9.30;99.90;;;;;;5025642;28;20289;-71
2023/01/02 11:05:22;;;;;;;0.10;0.10;;;9.30;99.90;;;;;;5026017;28;20700;-71
2023/01/02 11:07:50;;;;;;;0.10;0.10;;;9.40;99.90;;;;;;5043657;28;20057;-71
2023/01/02 11:10:33;;;;;;;0.10;0.10;;;9.40;99.90;;;;;;5042236;28;20045;-71
2023/01/02 11:13:07;;;;;;;0.10;0.10;;;9.40;99.90;;;;;;5025398;28;20045;-71
2023/01/02 11:15:35;;;;;;;0.00;0.00;;;9.40;99.90;;;;;;5027806;28;20037;-71
2023/01/02 11:18:10;;;;;;;0.10;0.10;;;9.40;99.90;;;;;;5026450;28;20433;-71
2023/01/02 11:20:36;;;;;;;0.60;0.55;;;9.40;99.90;;;;;;5032021;28;20049;-72
2023/01/02 11:23:03;;;;;;;0.10;0.10;;;9.40;99.90;;;;;;5030043;28;20445;-71
2023/01/02 11:25:39;;;;;;;0.10;0.10;;;9.40;99.90;;;;;;5021181;28;20128;-71
2023/01/02 11:28:05;;;;;;;0.00;0.00;;;9.40;99.90;;;;;;5030019;28;20485;-69
2023/01/02 11:30:45;;;;;;;0.00;0.00;;;9.40;99.90;;;;;;5026478;28;20080;-71
2023/01/02 11:33:19;;;;;;;0.20;0.20;;;9.50;99.90;;;;;;5027128;28;20547;-71
2023/01/02 11:35:51;;;;;;;0.10;0.10;;;9.40;99.90;;;;;;5029843;28;20092;-71
2023/01/02 11:38:19;;;;;;;0.20;0.20;;;9.50;99.90;;;;;;5024096;28;20041;-71
2023/01/02 11:40:58;;;;;;;0.47;0.47;;;9.50;99.90;;;;;;5027742;28;20059;-71
2023/01/02 11:43:50;;;;;;;0.50;0.50;;;9.50;99.90;;;;;;5036850;28;20140;-71
2023/01/02 11:46:27;;;;;;;0.10;0.10;;;9.50;99.90;;;;;;5029242;28;20407;-71
2023/01/02 11:48:58;;;;;;;0.10;0.10;;;9.60;99.90;;;;;;5024155;28;20493;-71
2023/01/02 11:51:24;;;;;;;0.10;0.10;;;9.50;99.90;;;;;;5030333;28;20370;-71
2023/01/02 11:53:52;;;;;;;0.00;0.00;;;9.50;99.90;;;;;;5030944;28;20442;-71
2023/01/02 11:56:18;;;;;;;0.47;0.38;;;9.50;99.90;;;;;;5030670;28;20560;-70
2023/01/02 11:58:49;;;;;;;0.20;0.20;;;9.50;99.90;;;;;;5029353;28;20124;-71
2023/01/02 12:01:23;;;;;;;0.10;0.10;;;9.50;99.90;;;;;;5028904;28;20393;-71
2023/01/02 12:03:49;;;;;;;0.10;0.10;;;9.50;99.90;;;;;;5026312;28;20053;-71
2023/01/02 12:06:20;;;;;;;0.10;0.10;;;9.50;99.90;;;;;;5028048;28;20511;-71
2023/01/02 12:08:55;;;;;;;0.10;0.10;;;9.50;99.90;;;;;;5029928;28;20045;-70
2023/01/02 12:11:20;;;;;;;2.05;0.82;;;9.50;99.90;;;;;;5029709;28;20128;-70
2023/01/02 12:13:56;;;;;;;0.00;0.00;;;9.60;99.90;;;;;;5026539;28;20180;-68
2023/01/02 12:16:26;;;;;;;0.10;0.10;;;9.60;99.90;;;;;;5031376;28;20111;-71
2023/01/02 12:19:19;;;;;;;5.28;1.75;;;9.60;99.90;;;;;;5029996;28;20119;-70
2023/01/02 12:21:59;;;;;;;0.10;0.10;;;9.60;99.90;;;;;;5025685;28;20123;-70
2023/01/02 12:25:05;;;;;;;0.20;0.20;;;9.70;99.90;;;;;;5027068;28;20042;-70
2023/01/02 12:27:43;;;;;;;0.13;0.13;;;9.70;99.90;;;;;;4997281;28;20072;-70
2023/01/02 12:30:16;;;;;;;0.30;0.30;;;9.70;99.90;;;;;;5030164;28;20053;-70
2023/01/02 12:33:02;;;;;;;0.65;0.65;;;9.70;99.90;;;;;;5026117;28;20045;-70
2023/01/02 12:36:05;;;;;;;0.32;0.25;;;9.70;99.90;;;;;;5023990;28;20127;-69
2023/01/02 12:38:53;;;;;;;0.68;0.68;;;9.70;99.90;;;;;;5030421;28;20041;-71
2023/01/02 12:41:59;;;;;;;0.10;0.10;;;9.80;99.90;;;;;;5024024;28;20555;-70
2023/01/02 12:44:43;;;;;;;0.55;0.55;;;9.80;99.90;;;;;;5013791;28;20053;-70
2023/01/02 12:47:12;;;;;;;0.10;0.10;;;9.70;99.90;;;;;;5028499;28;20065;-70
2023/01/02 12:49:54;;;;;;;5.40;1.65;;;9.70;99.90;;;;;;5025247;28;20049;-70
2023/01/02 12:52:33;;;;;;;0.10;0.10;;;9.70;99.90;;;;;;5027006;28;20052;-70
2023/01/02 12:55:29;;;;;;;0.47;0.47;;;9.70;99.90;;;;;;5030176;28;20072;-70
2023/01/02 12:58:06;;;;;;;0.10;0.10;;;9.80;99.90;;;;;;5024656;28;20120;-70
2023/01/02 13:00:47;;;;;;;1.02;0.75;;;9.80;99.90;;;;;;5029393;28;20041;-70
2023/01/02 13:03:36;;;;;;;0.20;0.20;;;9.80;99.90;;;;;;5024421;28;20046;-70
2023/01/02 13:06:24;;;;;;;0.85;0.85;;;9.80;99.90;;;;;;5026756;28;20574;-70
2023/01/02 13:08:59;;;;;;;2.58;1.58;;;9.80;99.90;;;;;;5024236;28;20400;-70
2023/01/02 13:11:32;;;;;;;0.50;0.50;;;9.80;99.90;;;;;;5019277;28;20497;-70
2023/01/02 13:14:01;;;;;;;0.10;0.10;;;9.70;99.90;;;;;;5023825;28;20045;-70
2023/01/02 13:16:27;;;;;;;0.10;0.10;;;9.70;99.90;;;;;;5020946;28;20033;-71